sensor_id;sensor_type;location;lat;lon;timestamp;P1;durP1;ratioP1;P2;durP2;ratioP2
12780;SDS011;6454;43.304;24.344;2022-12-07T00:00:14;18.57;;;13.23;;
12780;SDS011;6454;43.304;24.344;2022-12-07T00:02:41;19.03;;;13.20;;
12780;SDS011;6454;43.304;24.344;2022-12-07T00:05:08;19.07;;;12.77;;
12780;SDS011;6454;43.304;24.344;2022-12-07T00:07:35;22.17;;;13.90;;
12780;SDS011;6454;43.304;24.344;2022-12-07T00:10:03;21.35;;;12.90;;
12780;SDS011;6454;43.304;24.344;2022-12-07T00:12:31;24.70;;;13.10;;
12780;SDS011;6454;43.304;24.344;2022-12-07T00:14:58;24.73;;;13.47;;
12780;SDS011;6454;43.304;24.344;2022-12-07T00:17:25;19.60;;;13.57;;
12780;SDS011;6454;43.304;24.344;2022-12-07T00:19:52;22.20;;;13.53;;
12780;SDS011;6454;43.304;24.344;2022-12-07T00:22:18;20.73;;;12.35;;
12780;SDS011;6454;43.304;24.344;2022-12-07T00:24:45;17.83;;;12.00;;
12780;SDS011;6454;43.304;24.344;2022-12-07T00:27:13;19.20;;;11.97;;
12780;SDS011;6454;43.304;24.344;2022-12-07T00:29:40;16.27;;;11.30;;
12780;SDS011;6454;43.304;24.344;2022-12-07T00:32:07;16.63;;;11.13;;
12780;SDS011;6454;43.304;24.344;2022-12-07T00:34:34;16.50;;;11.57;;
12780;SDS011;6454;43.304;24.344;2022-12-07T00:37:00;17.43;;;11.03;;
12780;SDS011;6454;43.304;24.344;2022-12-07T00:39:27;17.53;;;10.43;;
12780;SDS011;6454;43.304;24.344;2022-12-07T00:41:54;16.40;;;11.27;;
12780;SDS011;6454;43.304;24.344;2022-12-07T00:44:22;17.63;;;11.03;;
12780;SDS011;6454;43.304;24.344;2022-12-07T00:46:49;16.07;;;11.30;;
12780;SDS011;6454;43.304;24.344;2022-12-07T00:49:16;19.93;;;12.23;;
12780;SDS011;6454;43.304;24.344;2022-12-07T00:51:43;16.40;;;11.37;;
12780;SDS011;6454;43.304;24.344;2022-12-07T00:54:09;17.53;;;11.63;;
12780;SDS011;6454;43.304;24.344;2022-12-07T00:56:36;15.53;;;10.33;;
12780;SDS011;6454;43.304;24.344;2022-12-07T00:59:03;19.40;;;11.77;;
12780;SDS011;6454;43.304;24.344;2022-12-07T01:01:32;16.63;;;11.13;;
12780;SDS011;6454;43.304;24.344;2022-12-07T01:04:00;16.53;;;11.50;;
12780;SDS011;6454;43.304;24.344;2022-12-07T01:06:28;18.43;;;11.77;;
12780;SDS011;6454;43.304;24.344;2022-12-07T01:08:56;16.35;;;11.13;;
12780;SDS011;6454;43.304;24.344;2022-12-07T01:11:24;16.47;;;10.43;;
12780;SDS011;6454;43.304;24.344;2022-12-07T01:13:52;16.20;;;10.70;;
12780;SDS011;6454;43.304;24.344;2022-12-07T01:16:21;14.40;;;10.13;;
12780;SDS011;6454;43.304;24.344;2022-12-07T01:18:51;17.70;;;11.43;;
12780;SDS011;6454;43.304;24.344;2022-12-07T01:21:21;15.77;;;10.63;;
12780;SDS011;6454;43.304;24.344;2022-12-07T01:23:49;16.80;;;11.80;;
12780;SDS011;6454;43.304;24.344;2022-12-07T01:26:18;15.30;;;10.63;;
12780;SDS011;6454;43.304;24.344;2022-12-07T01:28:46;16.40;;;11.00;;
12780;SDS011;6454;43.304;24.344;2022-12-07T01:31:14;18.93;;;11.27;;
12780;SDS011;6454;43.304;24.344;2022-12-07T01:33:43;15.77;;;10.27;;
12780;SDS011;6454;43.304;24.344;2022-12-07T01:36:14;15.17;;;10.13;;
12780;SDS011;6454;43.304;24.344;2022-12-07T01:38:42;15.90;;;10.33;;
12780;SDS011;6454;43.304;24.344;2022-12-07T01:41:10;15.23;;;10.20;;
12780;SDS011;6454;43.304;24.344;2022-12-07T01:44:06;15.97;;;9.77;;
12780;SDS011;6454;43.304;24.344;2022-12-07T01:46:37;18.10;;;10.93;;
12780;SDS011;6454;43.304;24.344;2022-12-07T01:49:04;17.97;;;10.83;;
12780;SDS011;6454;43.304;24.344;2022-12-07T01:51:36;16.23;;;10.83;;
12780;SDS011;6454;43.304;24.344;2022-12-07T01:54:06;16.13;;;10.63;;
12780;SDS011;6454;43.304;24.344;2022-12-07T01:56:34;14.73;;;10.40;;
12780;SDS011;6454;43.304;24.344;2022-12-07T01:59:02;15.70;;;10.33;;
12780;SDS011;6454;43.304;24.344;2022-12-07T02:01:29;13.33;;;9.70;;
12780;SDS011;6454;43.304;24.344;2022-12-07T02:03:56;13.97;;;10.13;;
12780;SDS011;6454;43.304;24.344;2022-12-07T02:06:24;14.20;;;10.03;;
12780;SDS011;6454;43.304;24.344;2022-12-07T02:08:53;16.83;;;10.80;;
12780;SDS011;6454;43.304;24.344;2022-12-07T02:11:20;15.97;;;10.23;;
12780;SDS011;6454;43.304;24.344;2022-12-07T02:13:48;14.77;;;10.10;;
12780;SDS011;6454;43.304;24.344;2022-12-07T02:16:23;14.88;;;10.63;;
12780;SDS011;6454;43.304;24.344;2022-12-07T02:18:58;15.70;;;10.57;;
12780;SDS011;6454;43.304;24.344;2022-12-07T02:21:37;16.20;;;10.77;;
12780;SDS011;6454;43.304;24.344;2022-12-07T02:24:18;16.27;;;11.00;;
12780;SDS011;6454;43.304;24.344;2022-12-07T02:30:04;20.93;;;11.47;;
12780;SDS011;6454;43.304;24.344;2022-12-07T02:32:35;17.63;;;12.03;;
12780;SDS011;6454;43.304;24.344;2022-12-07T02:35:09;19.87;;;11.83;;
12780;SDS011;6454;43.304;24.344;2022-12-07T02:37:42;18.00;;;12.03;;
12780;SDS011;6454;43.304;24.344;2022-12-07T02:40:17;21.87;;;13.47;;
12780;SDS011;6454;43.304;24.344;2022-12-07T02:42:49;19.90;;;11.77;;
12780;SDS011;6454;43.304;24.344;2022-12-07T02:45:23;20.83;;;13.10;;
12780;SDS011;6454;43.304;24.344;2022-12-07T02:47:55;17.30;;;11.60;;
12780;SDS011;6454;43.304;24.344;2022-12-07T02:50:25;18.77;;;12.73;;
12780;SDS011;6454;43.304;24.344;2022-12-07T02:52:52;18.83;;;12.63;;
12780;SDS011;6454;43.304;24.344;2022-12-07T02:55:19;18.17;;;13.07;;
12780;SDS011;6454;43.304;24.344;2022-12-07T02:58:00;16.20;;;11.40;;
12780;SDS011;6454;43.304;24.344;2022-12-07T03:00:40;18.80;;;11.60;;
12780;SDS011;6454;43.304;24.344;2022-12-07T03:03:13;17.93;;;11.43;;
12780;SDS011;6454;43.304;24.344;2022-12-07T03:05:48;14.97;;;10.30;;
12780;SDS011;6454;43.304;24.344;2022-12-07T03:08:27;16.97;;;10.63;;
12780;SDS011;6454;43.304;24.344;2022-12-07T03:11:03;16.70;;;10.80;;
12780;SDS011;6454;43.304;24.344;2022-12-07T03:13:34;14.17;;;9.90;;
12780;SDS011;6454;43.304;24.344;2022-12-07T03:16:09;14.40;;;10.20;;
12780;SDS011;6454;43.304;24.344;2022-12-07T03:18:43;14.50;;;10.33;;
12780;SDS011;6454;43.304;24.344;2022-12-07T03:21:15;14.80;;;9.53;;
12780;SDS011;6454;43.304;24.344;2022-12-07T03:23:47;13.67;;;9.57;;
12780;SDS011;6454;43.304;24.344;2022-12-07T03:26:17;14.00;;;9.77;;
12780;SDS011;6454;43.304;24.344;2022-12-07T03:28:47;14.73;;;9.67;;
12780;SDS011;6454;43.304;24.344;2022-12-07T03:31:21;14.37;;;9.63;;
12780;SDS011;6454;43.304;24.344;2022-12-07T03:33:52;12.80;;;9.57;;
12780;SDS011;6454;43.304;24.344;2022-12-07T03:36:25;12.93;;;8.97;;
12780;SDS011;6454;43.304;24.344;2022-12-07T03:38:57;15.77;;;10.53;;
12780;SDS011;6454;43.304;24.344;2022-12-07T03:41:30;13.97;;;10.00;;
12780;SDS011;6454;43.304;24.344;2022-12-07T03:44:00;12.07;;;8.70;;
12780;SDS011;6454;43.304;24.344;2022-12-07T03:46:30;15.93;;;9.33;;
12780;SDS011;6454;43.304;24.344;2022-12-07T03:49:05;12.70;;;8.90;;
12780;SDS011;6454;43.304;24.344;2022-12-07T03:51:38;12.83;;;9.17;;
12780;SDS011;6454;43.304;24.344;2022-12-07T03:54:10;12.17;;;8.57;;
12780;SDS011;6454;43.304;24.344;2022-12-07T03:56:39;14.57;;;9.43;;
12780;SDS011;6454;43.304;24.344;2022-12-07T03:59:08;13.70;;;9.20;;
12780;SDS011;6454;43.304;24.344;2022-12-07T04:01:38;14.10;;;9.63;;
12780;SDS011;6454;43.304;24.344;2022-12-07T04:04:07;16.37;;;10.07;;
12780;SDS011;6454;43.304;24.344;2022-12-07T04:06:34;12.17;;;9.07;;
12780;SDS011;6454;43.304;24.344;2022-12-07T04:09:01;13.83;;;8.17;;
12780;SDS011;6454;43.304;24.344;2022-12-07T04:11:28;12.00;;;8.53;;
12780;SDS011;6454;43.304;24.344;2022-12-07T04:13:55;13.17;;;9.13;;
12780;SDS011;6454;43.304;24.344;2022-12-07T04:16:56;13.73;;;9.23;;
12780;SDS011;6454;43.304;24.344;2022-12-07T04:19:24;13.17;;;9.33;;
12780;SDS011;6454;43.304;24.344;2022-12-07T04:21:53;12.83;;;8.57;;
12780;SDS011;6454;43.304;24.344;2022-12-07T04:24:20;13.83;;;9.67;;
12780;SDS011;6454;43.304;24.344;2022-12-07T04:26:47;12.30;;;9.30;;
12780;SDS011;6454;43.304;24.344;2022-12-07T04:29:14;13.00;;;8.60;;
12780;SDS011;6454;43.304;24.344;2022-12-07T04:31:42;11.67;;;8.83;;
12780;SDS011;6454;43.304;24.344;2022-12-07T04:34:11;13.13;;;8.50;;
12780;SDS011;6454;43.304;24.344;2022-12-07T04:36:38;12.10;;;9.00;;
12780;SDS011;6454;43.304;24.344;2022-12-07T04:39:06;13.03;;;9.00;;
12780;SDS011;6454;43.304;24.344;2022-12-07T04:41:34;17.63;;;9.60;;
12780;SDS011;6454;43.304;24.344;2022-12-07T04:44:01;12.47;;;8.90;;
12780;SDS011;6454;43.304;24.344;2022-12-07T04:46:32;13.20;;;8.80;;
12780;SDS011;6454;43.304;24.344;2022-12-07T04:48:59;12.87;;;9.07;;
12780;SDS011;6454;43.304;24.344;2022-12-07T04:51:27;12.57;;;8.50;;
12780;SDS011;6454;43.304;24.344;2022-12-07T04:53:55;11.60;;;8.27;;
12780;SDS011;6454;43.304;24.344;2022-12-07T04:56:22;13.20;;;9.13;;
12780;SDS011;6454;43.304;24.344;2022-12-07T04:58:50;12.77;;;8.83;;
12780;SDS011;6454;43.304;24.344;2022-12-07T05:01:18;13.13;;;8.83;;
12780;SDS011;6454;43.304;24.344;2022-12-07T05:03:45;14.60;;;9.27;;
12780;SDS011;6454;43.304;24.344;2022-12-07T05:06:12;17.27;;;11.03;;
12780;SDS011;6454;43.304;24.344;2022-12-07T05:08:41;17.53;;;12.83;;
12780;SDS011;6454;43.304;24.344;2022-12-07T05:11:09;16.93;;;10.70;;
12780;SDS011;6454;43.304;24.344;2022-12-07T05:13:57;16.23;;;11.10;;
12780;SDS011;6454;43.304;24.344;2022-12-07T05:16:24;16.40;;;11.13;;
12780;SDS011;6454;43.304;24.344;2022-12-07T05:18:50;16.23;;;10.90;;
12780;SDS011;6454;43.304;24.344;2022-12-07T05:21:17;13.60;;;9.67;;
12780;SDS011;6454;43.304;24.344;2022-12-07T05:23:45;26.33;;;18.53;;
12780;SDS011;6454;43.304;24.344;2022-12-07T05:26:12;22.67;;;13.60;;
12780;SDS011;6454;43.304;24.344;2022-12-07T05:28:39;19.80;;;13.77;;
12780;SDS011;6454;43.304;24.344;2022-12-07T05:31:06;14.93;;;11.03;;
12780;SDS011;6454;43.304;24.344;2022-12-07T05:33:32;15.43;;;10.87;;
12780;SDS011;6454;43.304;24.344;2022-12-07T05:35:59;17.83;;;11.60;;
12780;SDS011;6454;43.304;24.344;2022-12-07T05:38:30;14.87;;;10.10;;
12780;SDS011;6454;43.304;24.344;2022-12-07T05:41:00;16.93;;;11.27;;
12780;SDS011;6454;43.304;24.344;2022-12-07T05:43:28;18.97;;;11.37;;
12780;SDS011;6454;43.304;24.344;2022-12-07T05:45:55;16.80;;;10.57;;
12780;SDS011;6454;43.304;24.344;2022-12-07T05:48:22;17.50;;;11.10;;
12780;SDS011;6454;43.304;24.344;2022-12-07T05:50:49;17.33;;;11.03;;
12780;SDS011;6454;43.304;24.344;2022-12-07T05:53:17;16.20;;;10.37;;
12780;SDS011;6454;43.304;24.344;2022-12-07T05:55:44;16.30;;;10.40;;
12780;SDS011;6454;43.304;24.344;2022-12-07T05:58:12;16.67;;;10.77;;
12780;SDS011;6454;43.304;24.344;2022-12-07T06:00:56;18.27;;;10.87;;
12780;SDS011;6454;43.304;24.344;2022-12-07T06:03:23;17.77;;;10.87;;
12780;SDS011;6454;43.304;24.344;2022-12-07T06:05:51;14.97;;;9.93;;
12780;SDS011;6454;43.304;24.344;2022-12-07T06:08:18;17.00;;;10.47;;
12780;SDS011;6454;43.304;24.344;2022-12-07T06:10:46;19.60;;;12.13;;
12780;SDS011;6454;43.304;24.344;2022-12-07T06:13:36;43.00;;;26.73;;
12780;SDS011;6454;43.304;24.344;2022-12-07T06:16:02;42.67;;;26.30;;
12780;SDS011;6454;43.304;24.344;2022-12-07T06:18:28;38.73;;;24.97;;
12780;SDS011;6454;43.304;24.344;2022-12-07T06:20:55;25.10;;;16.53;;
12780;SDS011;6454;43.304;24.344;2022-12-07T06:23:22;23.07;;;13.83;;
12780;SDS011;6454;43.304;24.344;2022-12-07T06:25:49;25.17;;;17.27;;
12780;SDS011;6454;43.304;24.344;2022-12-07T06:28:15;28.83;;;18.97;;
12780;SDS011;6454;43.304;24.344;2022-12-07T06:30:43;32.10;;;21.07;;
12780;SDS011;6454;43.304;24.344;2022-12-07T06:33:10;25.80;;;17.30;;
12780;SDS011;6454;43.304;24.344;2022-12-07T06:35:37;28.77;;;19.30;;
12780;SDS011;6454;43.304;24.344;2022-12-07T06:38:04;26.23;;;17.23;;
12780;SDS011;6454;43.304;24.344;2022-12-07T06:40:30;23.77;;;17.17;;
12780;SDS011;6454;43.304;24.344;2022-12-07T06:42:57;24.70;;;17.80;;
12780;SDS011;6454;43.304;24.344;2022-12-07T06:45:24;22.13;;;15.37;;
12780;SDS011;6454;43.304;24.344;2022-12-07T06:47:52;18.97;;;13.33;;
12780;SDS011;6454;43.304;24.344;2022-12-07T06:50:19;22.53;;;15.80;;
12780;SDS011;6454;43.304;24.344;2022-12-07T06:52:46;20.07;;;15.40;;
12780;SDS011;6454;43.304;24.344;2022-12-07T06:55:12;17.53;;;12.50;;
12780;SDS011;6454;43.304;24.344;2022-12-07T06:57:39;18.60;;;13.30;;
12780;SDS011;6454;43.304;24.344;2022-12-07T07:00:06;22.33;;;15.00;;
12780;SDS011;6454;43.304;24.344;2022-12-07T07:02:34;20.60;;;15.23;;
12780;SDS011;6454;43.304;24.344;2022-12-07T07:05:02;15.57;;;11.77;;
12780;SDS011;6454;43.304;24.344;2022-12-07T07:07:29;18.53;;;12.37;;
12780;SDS011;6454;43.304;24.344;2022-12-07T07:09:56;21.57;;;13.60;;
12780;SDS011;6454;43.304;24.344;2022-12-07T07:12:23;18.77;;;13.67;;
12780;SDS011;6454;43.304;24.344;2022-12-07T07:14:49;17.43;;;12.67;;
12780;SDS011;6454;43.304;24.344;2022-12-07T07:17:16;18.87;;;13.13;;
12780;SDS011;6454;43.304;24.344;2022-12-07T07:19:43;20.53;;;13.43;;
12780;SDS011;6454;43.304;24.344;2022-12-07T07:22:11;17.27;;;12.00;;
12780;SDS011;6454;43.304;24.344;2022-12-07T07:24:38;18.13;;;12.43;;
12780;SDS011;6454;43.304;24.344;2022-12-07T07:27:05;18.13;;;12.37;;
12780;SDS011;6454;43.304;24.344;2022-12-07T07:29:31;33.10;;;19.53;;
12780;SDS011;6454;43.304;24.344;2022-12-07T07:31:59;31.50;;;19.03;;
12780;SDS011;6454;43.304;24.344;2022-12-07T07:34:26;27.77;;;17.00;;
12780;SDS011;6454;43.304;24.344;2022-12-07T07:36:53;22.70;;;14.30;;
12780;SDS011;6454;43.304;24.344;2022-12-07T07:39:21;16.17;;;11.03;;
12780;SDS011;6454;43.304;24.344;2022-12-07T07:41:48;16.13;;;10.53;;
12780;SDS011;6454;43.304;24.344;2022-12-07T07:44:14;15.60;;;11.00;;
12780;SDS011;6454;43.304;24.344;2022-12-07T07:46:41;14.63;;;9.77;;
12780;SDS011;6454;43.304;24.344;2022-12-07T07:49:08;12.50;;;9.30;;
12780;SDS011;6454;43.304;24.344;2022-12-07T07:51:36;14.50;;;10.17;;
12780;SDS011;6454;43.304;24.344;2022-12-07T07:54:02;15.63;;;10.27;;
12780;SDS011;6454;43.304;24.344;2022-12-07T07:56:31;15.03;;;10.33;;
12780;SDS011;6454;43.304;24.344;2022-12-07T07:58:58;21.20;;;14.47;;
12780;SDS011;6454;43.304;24.344;2022-12-07T08:01:25;19.20;;;13.47;;
12780;SDS011;6454;43.304;24.344;2022-12-07T08:03:51;23.90;;;15.57;;
12780;SDS011;6454;43.304;24.344;2022-12-07T08:06:18;20.67;;;13.87;;
12780;SDS011;6454;43.304;24.344;2022-12-07T08:08:45;20.37;;;13.93;;
12780;SDS011;6454;43.304;24.344;2022-12-07T08:11:12;20.30;;;13.17;;
12780;SDS011;6454;43.304;24.344;2022-12-07T08:13:40;19.23;;;12.60;;
12780;SDS011;6454;43.304;24.344;2022-12-07T08:16:07;17.93;;;11.83;;
12780;SDS011;6454;43.304;24.344;2022-12-07T08:18:36;17.80;;;12.57;;
12780;SDS011;6454;43.304;24.344;2022-12-07T08:21:03;16.77;;;11.80;;
12780;SDS011;6454;43.304;24.344;2022-12-07T08:23:49;16.40;;;11.37;;
12780;SDS011;6454;43.304;24.344;2022-12-07T08:26:16;18.15;;;12.45;;
12780;SDS011;6454;43.304;24.344;2022-12-07T08:28:44;15.40;;;11.60;;
12780;SDS011;6454;43.304;24.344;2022-12-07T08:31:12;17.67;;;12.07;;
12780;SDS011;6454;43.304;24.344;2022-12-07T08:33:41;17.08;;;12.13;;
12780;SDS011;6454;43.304;24.344;2022-12-07T08:36:08;18.13;;;12.30;;
12780;SDS011;6454;43.304;24.344;2022-12-07T08:38:37;15.60;;;11.73;;
12780;SDS011;6454;43.304;24.344;2022-12-07T08:41:05;16.43;;;12.10;;
12780;SDS011;6454;43.304;24.344;2022-12-07T08:43:32;16.90;;;13.05;;
12780;SDS011;6454;43.304;24.344;2022-12-07T08:46:03;17.23;;;12.15;;
12780;SDS011;6454;43.304;24.344;2022-12-07T08:48:34;18.53;;;12.73;;
12780;SDS011;6454;43.304;24.344;2022-12-07T08:51:05;17.08;;;12.63;;
12780;SDS011;6454;43.304;24.344;2022-12-07T08:53:32;21.67;;;16.42;;
12780;SDS011;6454;43.304;24.344;2022-12-07T08:56:00;18.27;;;13.50;;
12780;SDS011;6454;43.304;24.344;2022-12-07T08:58:27;16.63;;;12.57;;
12780;SDS011;6454;43.304;24.344;2022-12-07T09:00:54;14.95;;;11.25;;
12780;SDS011;6454;43.304;24.344;2022-12-07T09:03:22;16.13;;;11.38;;
12780;SDS011;6454;43.304;24.344;2022-12-07T09:05:49;15.52;;;12.43;;
12780;SDS011;6454;43.304;24.344;2022-12-07T09:08:15;16.13;;;12.32;;
12780;SDS011;6454;43.304;24.344;2022-12-07T09:10:42;14.43;;;11.70;;
12780;SDS011;6454;43.304;24.344;2022-12-07T09:13:09;16.00;;;11.77;;
12780;SDS011;6454;43.304;24.344;2022-12-07T09:15:36;12.82;;;10.52;;
12780;SDS011;6454;43.304;24.344;2022-12-07T09:18:03;14.95;;;12.23;;
12780;SDS011;6454;43.304;24.344;2022-12-07T09:20:31;16.08;;;11.20;;
12780;SDS011;6454;43.304;24.344;2022-12-07T09:22:58;14.32;;;10.95;;
12780;SDS011;6454;43.304;24.344;2022-12-07T09:25:25;12.63;;;10.38;;
12780;SDS011;6454;43.304;24.344;2022-12-07T09:27:55;13.52;;;11.10;;
12780;SDS011;6454;43.304;24.344;2022-12-07T09:30:22;12.13;;;9.63;;
12780;SDS011;6454;43.304;24.344;2022-12-07T09:32:49;14.25;;;10.30;;
12780;SDS011;6454;43.304;24.344;2022-12-07T09:35:16;12.23;;;10.40;;
12780;SDS011;6454;43.304;24.344;2022-12-07T09:37:44;12.60;;;9.40;;
12780;SDS011;6454;43.304;24.344;2022-12-07T09:40:11;12.07;;;9.60;;
12780;SDS011;6454;43.304;24.344;2022-12-07T09:42:39;12.45;;;10.20;;
12780;SDS011;6454;43.304;24.344;2022-12-07T09:45:11;12.23;;;10.43;;
12780;SDS011;6454;43.304;24.344;2022-12-07T09:47:40;12.27;;;10.65;;
12780;SDS011;6454;43.304;24.344;2022-12-07T09:50:12;11.63;;;9.18;;
12780;SDS011;6454;43.304;24.344;2022-12-07T09:52:41;12.68;;;10.07;;
12780;SDS011;6454;43.304;24.344;2022-12-07T09:55:12;10.95;;;8.80;;
12780;SDS011;6454;43.304;24.344;2022-12-07T09:57:40;12.20;;;9.55;;
12780;SDS011;6454;43.304;24.344;2022-12-07T10:00:11;12.65;;;10.05;;
12780;SDS011;6454;43.304;24.344;2022-12-07T10:02:41;11.85;;;10.30;;
12780;SDS011;6454;43.304;24.344;2022-12-07T10:05:12;9.68;;;8.00;;
12780;SDS011;6454;43.304;24.344;2022-12-07T10:07:40;10.40;;;9.25;;
12780;SDS011;6454;43.304;24.344;2022-12-07T10:10:12;14.02;;;10.07;;
12780;SDS011;6454;43.304;24.344;2022-12-07T10:12:56;12.98;;;9.82;;
12780;SDS011;6454;43.304;24.344;2022-12-07T10:15:47;14.02;;;10.82;;
12780;SDS011;6454;43.304;24.344;2022-12-07T10:21:08;12.35;;;10.63;;
12780;SDS011;6454;43.304;24.344;2022-12-07T10:23:38;12.43;;;9.45;;
12780;SDS011;6454;43.304;24.344;2022-12-07T10:26:27;9.68;;;8.02;;
12780;SDS011;6454;43.304;24.344;2022-12-07T10:28:58;9.93;;;8.45;;
12780;SDS011;6454;43.304;24.344;2022-12-07T10:31:27;13.48;;;9.20;;
12780;SDS011;6454;43.304;24.344;2022-12-07T10:33:55;10.30;;;8.75;;
12780;SDS011;6454;43.304;24.344;2022-12-07T10:36:23;10.00;;;8.40;;
12780;SDS011;6454;43.304;24.344;2022-12-07T10:38:52;10.80;;;8.75;;
12780;SDS011;6454;43.304;24.344;2022-12-07T10:41:24;11.07;;;9.40;;
12780;SDS011;6454;43.304;24.344;2022-12-07T10:43:53;12.48;;;8.98;;
12780;SDS011;6454;43.304;24.344;2022-12-07T10:46:32;9.40;;;8.43;;
12780;SDS011;6454;43.304;24.344;2022-12-07T10:52:34;11.85;;;10.05;;
12780;SDS011;6454;43.304;24.344;2022-12-07T10:55:19;11.43;;;9.82;;
12780;SDS011;6454;43.304;24.344;2022-12-07T10:57:55;14.95;;;11.40;;
12780;SDS011;6454;43.304;24.344;2022-12-07T11:00:32;13.45;;;11.70;;
12780;SDS011;6454;43.304;24.344;2022-12-07T11:06:14;14.10;;;10.95;;
12780;SDS011;6454;43.304;24.344;2022-12-07T11:08:56;14.25;;;11.77;;
12780;SDS011;6454;43.304;24.344;2022-12-07T11:11:32;14.15;;;11.32;;
12780;SDS011;6454;43.304;24.344;2022-12-07T11:14:05;13.68;;;11.43;;
12780;SDS011;6454;43.304;24.344;2022-12-07T11:16:47;13.30;;;10.73;;
12780;SDS011;6454;43.304;24.344;2022-12-07T11:19:22;12.98;;;10.82;;
12780;SDS011;6454;43.304;24.344;2022-12-07T11:22:01;13.98;;;11.63;;
12780;SDS011;6454;43.304;24.344;2022-12-07T11:24:34;13.98;;;11.75;;
12780;SDS011;6454;43.304;24.344;2022-12-07T11:27:12;14.73;;;12.15;;
12780;SDS011;6454;43.304;24.344;2022-12-07T11:32:45;15.95;;;12.68;;
12780;SDS011;6454;43.304;24.344;2022-12-07T11:35:34;17.55;;;13.60;;
12780;SDS011;6454;43.304;24.344;2022-12-07T11:38:11;18.27;;;14.88;;
12780;SDS011;6454;43.304;24.344;2022-12-07T11:40:40;17.85;;;14.77;;
12780;SDS011;6454;43.304;24.344;2022-12-07T11:43:13;20.25;;;15.77;;
12780;SDS011;6454;43.304;24.344;2022-12-07T11:45:50;20.63;;;15.98;;
12780;SDS011;6454;43.304;24.344;2022-12-07T11:48:24;20.38;;;16.58;;
12780;SDS011;6454;43.304;24.344;2022-12-07T11:50:59;22.60;;;16.50;;
12780;SDS011;6454;43.304;24.344;2022-12-07T11:53:29;23.23;;;15.85;;
12780;SDS011;6454;43.304;24.344;2022-12-07T11:56:02;19.73;;;14.77;;
12780;SDS011;6454;43.304;24.344;2022-12-07T12:01:29;18.70;;;15.27;;
12780;SDS011;6454;43.304;24.344;2022-12-07T12:04:06;17.88;;;13.48;;
12780;SDS011;6454;43.304;24.344;2022-12-07T12:06:52;17.80;;;14.65;;
12780;SDS011;6454;43.304;24.344;2022-12-07T12:09:21;17.85;;;13.68;;
12780;SDS011;6454;43.304;24.344;2022-12-07T12:15:14;16.17;;;13.18;;
12780;SDS011;6454;43.304;24.344;2022-12-07T12:18:01;16.13;;;12.27;;
12780;SDS011;6454;43.304;24.344;2022-12-07T12:20:52;29.00;;;25.90;;
12780;SDS011;6454;43.304;24.344;2022-12-07T12:23:25;21.13;;;14.25;;
12780;SDS011;6454;43.304;24.344;2022-12-07T12:26:02;24.33;;;21.10;;
12780;SDS011;6454;43.304;24.344;2022-12-07T12:28:32;18.00;;;14.63;;
12780;SDS011;6454;43.304;24.344;2022-12-07T12:31:06;18.13;;;14.00;;
12780;SDS011;6454;43.304;24.344;2022-12-07T12:33:37;16.70;;;12.73;;
12780;SDS011;6454;43.304;24.344;2022-12-07T12:39:11;17.20;;;13.00;;
12780;SDS011;6454;43.304;24.344;2022-12-07T12:41:58;19.70;;;14.80;;
12780;SDS011;6454;43.304;24.344;2022-12-07T12:44:39;21.85;;;18.13;;
12780;SDS011;6454;43.304;24.344;2022-12-07T12:47:40;17.98;;;13.93;;
12780;SDS011;6454;43.304;24.344;2022-12-07T12:52:53;18.73;;;14.88;;
12780;SDS011;6454;43.304;24.344;2022-12-07T12:55:29;20.63;;;16.95;;
12780;SDS011;6454;43.304;24.344;2022-12-07T12:58:40;20.98;;;16.85;;
12780;SDS011;6454;43.304;24.344;2022-12-07T13:07:06;24.02;;;18.38;;
12780;SDS011;6454;43.304;24.344;2022-12-07T13:09:37;26.48;;;18.50;;
12780;SDS011;6454;43.304;24.344;2022-12-07T13:12:12;25.25;;;19.30;;
12780;SDS011;6454;43.304;24.344;2022-12-07T13:23:30;21.40;;;16.17;;
12780;SDS011;6454;43.304;24.344;2022-12-07T13:26:04;21.55;;;16.08;;
12780;SDS011;6454;43.304;24.344;2022-12-07T13:28:40;21.95;;;15.63;;
12780;SDS011;6454;43.304;24.344;2022-12-07T13:31:11;19.98;;;15.98;;
12780;SDS011;6454;43.304;24.344;2022-12-07T13:33:54;20.98;;;16.55;;
12780;SDS011;6454;43.304;24.344;2022-12-07T13:36:22;20.45;;;16.40;;
12780;SDS011;6454;43.304;24.344;2022-12-07T13:38:56;21.30;;;15.90;;
12780;SDS011;6454;43.304;24.344;2022-12-07T13:41:24;26.55;;;21.50;;
12780;SDS011;6454;43.304;24.344;2022-12-07T13:43:53;19.92;;;16.00;;
12780;SDS011;6454;43.304;24.344;2022-12-07T13:46:29;19.17;;;15.73;;
12780;SDS011;6454;43.304;24.344;2022-12-07T13:49:02;18.00;;;14.30;;
12780;SDS011;6454;43.304;24.344;2022-12-07T13:51:29;21.92;;;18.00;;
12780;SDS011;6454;43.304;24.344;2022-12-07T13:54:09;19.20;;;16.08;;
12780;SDS011;6454;43.304;24.344;2022-12-07T13:56:37;20.20;;;16.05;;
12780;SDS011;6454;43.304;24.344;2022-12-07T13:59:07;19.33;;;15.15;;
12780;SDS011;6454;43.304;24.344;2022-12-07T14:01:40;18.45;;;15.60;;
12780;SDS011;6454;43.304;24.344;2022-12-07T14:07:00;22.25;;;17.08;;
12780;SDS011;6454;43.304;24.344;2022-12-07T14:09:52;19.80;;;15.98;;
12780;SDS011;6454;43.304;24.344;2022-12-07T14:12:20;22.92;;;16.88;;
12780;SDS011;6454;43.304;24.344;2022-12-07T14:14:47;20.33;;;17.20;;
12780;SDS011;6454;43.304;24.344;2022-12-07T14:17:15;22.25;;;16.75;;
12780;SDS011;6454;43.304;24.344;2022-12-07T14:19:47;24.38;;;18.95;;
12780;SDS011;6454;43.304;24.344;2022-12-07T14:22:21;23.75;;;18.63;;
12780;SDS011;6454;43.304;24.344;2022-12-07T14:27:49;22.27;;;17.73;;
12780;SDS011;6454;43.304;24.344;2022-12-07T14:30:20;20.77;;;16.88;;
12780;SDS011;6454;43.304;24.344;2022-12-07T14:32:50;27.40;;;20.95;;
12780;SDS011;6454;43.304;24.344;2022-12-07T14:35:19;27.42;;;21.83;;
12780;SDS011;6454;43.304;24.344;2022-12-07T14:37:47;23.00;;;18.15;;
12780;SDS011;6454;43.304;24.344;2022-12-07T14:40:16;20.70;;;17.55;;
12780;SDS011;6454;43.304;24.344;2022-12-07T14:42:46;24.73;;;18.02;;
12780;SDS011;6454;43.304;24.344;2022-12-07T14:45:17;25.75;;;18.98;;
12780;SDS011;6454;43.304;24.344;2022-12-07T14:47:45;23.50;;;19.15;;
12780;SDS011;6454;43.304;24.344;2022-12-07T14:50:13;23.67;;;19.50;;
12780;SDS011;6454;43.304;24.344;2022-12-07T14:52:41;27.15;;;20.42;;
12780;SDS011;6454;43.304;24.344;2022-12-07T14:55:13;28.23;;;20.70;;
12780;SDS011;6454;43.304;24.344;2022-12-07T14:57:44;31.95;;;21.58;;
12780;SDS011;6454;43.304;24.344;2022-12-07T15:00:13;26.70;;;21.55;;
12780;SDS011;6454;43.304;24.344;2022-12-07T15:02:42;26.25;;;20.23;;
12780;SDS011;6454;43.304;24.344;2022-12-07T15:05:09;24.95;;;19.65;;
12780;SDS011;6454;43.304;24.344;2022-12-07T15:07:35;23.00;;;18.10;;
12780;SDS011;6454;43.304;24.344;2022-12-07T15:10:02;23.48;;;18.08;;
12780;SDS011;6454;43.304;24.344;2022-12-07T15:12:30;23.90;;;17.17;;
12780;SDS011;6454;43.304;24.344;2022-12-07T15:14:58;20.60;;;17.48;;
12780;SDS011;6454;43.304;24.344;2022-12-07T15:17:26;22.45;;;16.30;;
12780;SDS011;6454;43.304;24.344;2022-12-07T15:19:53;20.27;;;16.45;;
12780;SDS011;6454;43.304;24.344;2022-12-07T15:22:20;19.88;;;16.58;;
12780;SDS011;6454;43.304;24.344;2022-12-07T15:24:46;20.67;;;15.88;;
12780;SDS011;6454;43.304;24.344;2022-12-07T15:27:13;20.98;;;16.48;;
12780;SDS011;6454;43.304;24.344;2022-12-07T15:29:40;20.88;;;16.45;;